createdAt,value
2022-11-23T00:01:24.252Z,100018.06
2022-11-23T00:03:52.590Z,100011.91
2022-11-23T00:06:21.112Z,100008.47
2022-11-23T00:08:48.539Z,100004.25
2022-11-23T00:11:19.035Z,100006.88
2022-11-23T00:13:46.107Z,100001.72
2022-11-23T00:16:15.763Z,100005.16
2022-11-23T00:18:42.603Z,100007.63
2022-11-23T00:21:12.126Z,100007.63
2022-11-23T00:23:38.915Z,100013.84
2022-11-23T00:26:06.028Z,100028.81
2022-11-23T00:28:32.912Z,100010.34
2022-11-23T00:31:02.791Z,100007.63
2022-11-23T00:33:29.472Z,100017.97
2022-11-23T00:36:04.708Z,100026.97
2022-11-23T00:38:31.561Z,100023.44
2022-11-23T00:41:03.293Z,100030.66
2022-11-23T00:43:30.326Z,100030.66
2022-11-23T00:46:17.743Z,100033.94
2022-11-23T00:48:45.771Z,100029.81
2022-11-23T00:51:15.564Z,100033.47
2022-11-23T00:53:43.727Z,100041.09
2022-11-23T00:56:11.942Z,100036.66
2022-11-23T00:58:39.068Z,100041.09
2022-11-23T01:01:06.019Z,100040.16
2022-11-23T01:03:35.126Z,100036.50
2022-11-23T01:06:06.585Z,100030.25
2022-11-23T01:08:33.733Z,100032.28
2022-11-23T01:11:02.770Z,100030.56
2022-11-23T01:13:29.572Z,100024.19
2022-11-23T01:15:56.517Z,100022.34
2022-11-23T01:18:23.631Z,100029.31
2022-11-23T01:20:50.320Z,100018.13
2022-11-23T01:23:16.988Z,100026.13
2022-11-23T01:25:43.678Z,100033.38
2022-11-23T01:28:10.511Z,100026.81
2022-11-23T01:30:37.202Z,100036.47
2022-11-23T01:33:04.695Z,100029.59
2022-11-23T01:35:31.492Z,100025.81
2022-11-23T01:37:58.211Z,100028.38
2022-11-23T01:40:25.064Z,100025.75
2022-11-23T01:43:00.796Z,100036.56
2022-11-23T01:45:33.470Z,100033.03
2022-11-23T01:48:00.619Z,100040.13
2022-11-23T01:50:27.394Z,100039.00
2022-11-23T01:52:54.059Z,100039.13
2022-11-23T01:55:21.018Z,100047.94
2022-11-23T01:57:48.079Z,100047.78
2022-11-23T02:00:15.720Z,100049.47
2022-11-23T02:02:51.588Z,100052.00
2022-11-23T02:05:20.804Z,100046.81
2022-11-23T02:07:48.428Z,100046.16
2022-11-23T02:10:15.963Z,100044.97
2022-11-23T02:12:42.701Z,100053.69
2022-11-23T02:15:12.287Z,100037.16
2022-11-23T02:17:40.620Z,100044.09
2022-11-23T02:20:15.766Z,100041.38
2022-11-23T02:23:12.771Z,100046.69
2022-11-23T02:25:44.527Z,100036.88
2022-11-23T02:28:22.131Z,100035.06
2022-11-23T02:30:50.724Z,100031.56
2022-11-23T02:33:17.560Z,100025.38
2022-11-23T02:35:52.863Z,100028.25
2022-11-23T02:38:20.013Z,100029.84
2022-11-23T02:40:46.873Z,100035.31
2022-11-23T02:43:14.049Z,100031.72
2022-11-23T02:45:59.948Z,100031.63
2022-11-23T02:48:26.584Z,100038.13
2022-11-23T02:50:53.242Z,100031.03
2022-11-23T02:53:20.384Z,100025.59
2022-11-23T02:55:47.335Z,100031.72
2022-11-23T02:58:14.049Z,100041.56
2022-11-23T03:00:41.890Z,100039.94
2022-11-23T03:03:08.638Z,100047.69
2022-11-23T03:05:35.401Z,100055.47
2022-11-23T03:08:05.487Z,100050.59
2022-11-23T03:10:32.517Z,100051.44
2022-11-23T03:12:59.337Z,100056.81
2022-11-23T03:15:28.799Z,100050.31
2022-11-23T03:17:59.262Z,100054.81
2022-11-23T03:20:26.462Z,100054.72
2022-11-23T03:22:55.749Z,100059.13
2022-11-23T03:25:23.875Z,100058.47
2022-11-23T03:27:53.712Z,100053.94
2022-11-23T03:30:21.221Z,100066.31
2022-11-23T03:32:48.891Z,100058.22
2022-11-23T03:35:16.484Z,100053.88
2022-11-23T03:38:01.652Z,100058.09
2022-11-23T03:40:28.340Z,100053.16
2022-11-23T03:43:10.844Z,100047.81
2022-11-23T03:45:37.658Z,100055.84
2022-11-23T03:48:05.138Z,100051.34
2022-11-23T03:50:31.996Z,100051.22
2022-11-23T03:52:59.891Z,100049.31
2022-11-23T03:55:27.062Z,100051.31
2022-11-23T03:57:59.851Z,100058.19
2022-11-23T04:00:30.975Z,100046.84
2022-11-23T04:02:58.658Z,100052.00
2022-11-23T04:05:43.778Z,100056.28
2022-11-23T04:08:29.065Z,100048.41
2022-11-23T04:10:58.092Z,100056.59
2022-11-23T04:13:35.195Z,100052.00
2022-11-23T04:16:02.308Z,100055.53
2022-11-23T04:18:29.046Z,100051.16
2022-11-23T04:20:55.955Z,100053.75
2022-11-23T04:23:22.738Z,100058.13
2022-11-23T04:25:50.231Z,100053.94
2022-11-23T04:28:17.752Z,100052.09
2022-11-23T04:30:46.761Z,100055.53
2022-11-23T04:33:13.743Z,100059.03
2022-11-23T04:35:40.632Z,100061.56
2022-11-23T04:38:10.662Z,100062.72
2022-11-23T04:40:37.729Z,100067.25
2022-11-23T04:43:06.732Z,100071.72
2022-11-23T04:45:38.774Z,100064.47
2022-11-23T04:48:08.767Z,100063.88
2022-11-23T04:50:40.358Z,100051.25
2022-11-23T04:53:08.752Z,100051.34
2022-11-23T04:55:44.155Z,100056.44
2022-11-23T04:58:11.297Z,100056.28
2022-11-23T05:00:39.241Z,100054.63
2022-11-23T05:03:06.258Z,100058.94
2022-11-23T05:05:38.112Z,100056.50
2022-11-23T05:08:05.240Z,100061.09
2022-11-23T05:10:44.737Z,100068.91
2022-11-23T05:13:11.539Z,100069.75
2022-11-23T05:15:38.254Z,100057.34
2022-11-23T05:18:07.048Z,100053.00
2022-11-23T05:20:35.395Z,100047.66
2022-11-23T05:23:02.510Z,100049.38
2022-11-23T05:25:33.774Z,100056.47
2022-11-23T05:28:23.315Z,100053.88
2022-11-23T05:30:55.017Z,100045.97
2022-11-23T05:33:21.815Z,100055.84
2022-11-23T05:35:48.513Z,100054.06
2022-11-23T05:38:16.175Z,100062.22
2022-11-23T05:40:45.251Z,100062.09
2022-11-23T05:43:13.361Z,100055.16
2022-11-23T05:45:43.715Z,100054.25
2022-11-23T05:48:10.788Z,100057.81
2022-11-23T05:50:50.340Z,100054.25
2022-11-23T05:53:32.103Z,100055.94
2022-11-23T05:56:08.672Z,100055.94
2022-11-23T05:58:44.654Z,100060.38
2022-11-23T06:01:12.007Z,100059.44
2022-11-23T06:03:39.503Z,100064.03
2022-11-23T06:06:06.773Z,100062.16
2022-11-23T06:08:39.376Z,100067.47
2022-11-23T06:11:06.520Z,100057.81
2022-11-23T06:13:33.725Z,100062.41
2022-11-23T06:16:00.555Z,100067.53
2022-11-23T06:18:34.592Z,100074.63
2022-11-23T06:21:01.514Z,100070.22
2022-11-23T06:23:28.478Z,100069.69
2022-11-23T06:26:01.242Z,100078.28
2022-11-23T06:28:30.402Z,100074.13
2022-11-23T06:31:02.457Z,100074.88
2022-11-23T06:33:29.205Z,100074.97
2022-11-23T06:35:57.280Z,100081.16
2022-11-23T06:38:27.403Z,100088.25
2022-11-23T06:41:31.036Z,100088.06
2022-11-23T06:43:59.585Z,100086.25
2022-11-23T06:46:41.133Z,100080.91
2022-11-23T06:49:07.976Z,100085.38
2022-11-23T06:51:35.183Z,100086.34
2022-11-23T06:54:01.979Z,100086.34
2022-11-23T06:56:29.325Z,100085.41
2022-11-23T06:58:56.044Z,100081.06
2022-11-23T07:01:26.691Z,100075.88
2022-11-23T07:04:06.784Z,100085.47
2022-11-23T07:06:42.128Z,100093.34
2022-11-23T07:09:17.478Z,100097.84
2022-11-23T07:11:52.448Z,100102.19
2022-11-23T07:14:19.088Z,100100.41
2022-11-23T07:16:47.903Z,100109.94
2022-11-23T07:19:16.135Z,100106.66
2022-11-23T07:21:45.468Z,100107.38
2022-11-23T07:24:13.485Z,100103.81
2022-11-23T07:26:42.002Z,100109.31
2022-11-23T07:29:10.142Z,100111.78
2022-11-23T07:31:37.161Z,100113.50
2022-11-23T07:34:05.091Z,100116.91
2022-11-23T07:36:32.951Z,100122.44
2022-11-23T07:39:02.902Z,100128.50
2022-11-23T07:41:29.584Z,100125.72
2022-11-23T07:44:06.504Z,100117.91
2022-11-23T07:46:33.224Z,100122.44
2022-11-23T07:49:02.349Z,100131.97
2022-11-23T07:51:29.644Z,100132.81
2022-11-23T07:53:56.471Z,100129.19
2022-11-23T07:56:23.591Z,100132.06
2022-11-23T07:58:50.693Z,100139.06
2022-11-23T08:01:18.989Z,100140.59
2022-11-23T08:03:46.791Z,100144.94
2022-11-23T08:06:14.249Z,100141.34
2022-11-23T08:08:42.615Z,100142.97
2022-11-23T08:11:10.725Z,100142.09
2022-11-23T08:13:37.506Z,100151.09
2022-11-23T08:16:04.784Z,100154.59
2022-11-23T08:18:31.552Z,100156.94
2022-11-23T08:21:01.339Z,100150.88
2022-11-23T08:23:28.328Z,100154.22
2022-11-23T08:25:58.273Z,100148.00
2022-11-23T08:28:24.951Z,100142.56
2022-11-23T08:30:51.740Z,100143.56
2022-11-23T08:33:18.425Z,100147.81
2022-11-23T08:35:45.131Z,100149.44
2022-11-23T08:38:12.273Z,100151.97
2022-11-23T08:40:39.289Z,100157.06
2022-11-23T08:43:06.233Z,100152.63
2022-11-23T08:45:33.097Z,100154.22
2022-11-23T08:48:03.768Z,100154.66
2022-11-23T08:50:31.224Z,100161.28
2022-11-23T08:52:59.094Z,100162.56
2022-11-23T08:55:27.514Z,100160.66
2022-11-23T08:58:00.654Z,100160.16
2022-11-23T09:00:27.948Z,100162.56
2022-11-23T09:02:54.927Z,100151.00
2022-11-23T09:05:21.918Z,100164.03
2022-11-23T09:07:48.857Z,100164.78
2022-11-23T09:10:18.675Z,100154.94
2022-11-23T09:12:46.975Z,100156.25
2022-11-23T09:15:14.375Z,100150.97
2022-11-23T09:17:41.032Z,100149.03
2022-11-23T09:20:08.627Z,100148.19
2022-11-23T09:22:35.332Z,100151.13
2022-11-23T09:25:02.890Z,100154.44
2022-11-23T09:27:29.880Z,100141.69
2022-11-23T09:29:56.686Z,100159.19
2022-11-23T09:32:23.508Z,100147.25
2022-11-23T09:34:50.508Z,100138.53
2022-11-23T09:37:17.210Z,100144.69
2022-11-23T09:39:44.006Z,100139.91
2022-11-23T09:42:39.159Z,100135.72
2022-11-23T09:45:20.019Z,100125.44
2022-11-23T09:48:09.331Z,100136.16
2022-11-23T09:50:57.033Z,100130.88
2022-11-23T09:53:33.153Z,100134.38
2022-11-23T09:56:00.097Z,100133.38
2022-11-23T09:58:31.396Z,100138.06
2022-11-23T10:01:04.269Z,100130.00
2022-11-23T10:03:41.539Z,100125.81
2022-11-23T10:06:22.747Z,100131.16
2022-11-23T10:09:14.945Z,100127.63
2022-11-23T10:12:05.424Z,100127.63
2022-11-23T10:14:50.408Z,100123.81
2022-11-23T10:17:54.193Z,100124.75
2022-11-23T10:20:29.890Z,100122.91
2022-11-23T10:22:59.446Z,100116.75
2022-11-23T10:25:29.926Z,100122.09
2022-11-23T10:28:02.835Z,100114.38
2022-11-23T10:30:29.596Z,100115.31
2022-11-23T10:33:15.518Z,100115.56
2022-11-23T10:35:42.173Z,100119.09
2022-11-23T10:38:19.912Z,100110.38
2022-11-23T10:41:00.156Z,100111.69
2022-11-23T10:43:32.017Z,100110.44
2022-11-23T10:46:27.019Z,100110.94
2022-11-23T10:48:54.260Z,100108.94
2022-11-23T10:51:31.156Z,100112.09
2022-11-23T10:54:05.196Z,100111.25
2022-11-23T10:56:35.309Z,100113.47
2022-11-23T10:59:02.019Z,100115.84
2022-11-23T11:01:31.834Z,100118.50
2022-11-23T11:04:04.555Z,100113.38
2022-11-23T11:06:34.264Z,100107.25
2022-11-23T11:09:04.571Z,100119.22
2022-11-23T11:11:39.205Z,100118.81
2022-11-23T11:14:14.954Z,100117.75
2022-11-23T11:16:55.607Z,100116.41
2022-11-23T11:19:35.861Z,100109.06
2022-11-23T11:22:26.974Z,100101.81
2022-11-23T11:24:54.247Z,100109.13
2022-11-23T11:27:22.784Z,100099.53
2022-11-23T11:29:51.583Z,100102.81
2022-11-23T11:32:26.287Z,100097.16
2022-11-23T11:35:20.595Z,100096.66
2022-11-23T11:37:50.072Z,100105.78
2022-11-23T11:40:18.090Z,100097.41
2022-11-23T11:42:55.386Z,100107.03
2022-11-23T11:45:31.870Z,100110.06
2022-11-23T11:48:07.278Z,100106.28
2022-11-23T11:50:40.810Z,100101.13
2022-11-23T11:53:11.913Z,100110.16
2022-11-23T11:55:50.904Z,100106.03
2022-11-23T11:58:18.154Z,100102.09
2022-11-23T12:00:47.064Z,100103.63
2022-11-23T12:03:34.918Z,100098.94
2022-11-23T12:06:10.980Z,100095.59
2022-11-23T12:08:52.514Z,100102.00
2022-11-23T12:11:19.739Z,100090.69
2022-11-23T12:13:47.100Z,100098.25
2022-11-23T12:16:34.498Z,100096.81
2022-11-23T12:19:22.055Z,100086.91
2022-11-23T12:21:58.558Z,100096.44
2022-11-23T12:24:25.381Z,100095.28
2022-11-23T12:27:14.093Z,100094.81
2022-11-23T12:29:54.733Z,100099.38
2022-11-23T12:32:46.250Z,100100.94
2022-11-23T12:35:31.633Z,100097.56
2022-11-23T12:38:08.133Z,100102.44
2022-11-23T12:40:40.838Z,100094.44
2022-11-23T12:43:22.885Z,100096.22
2022-11-23T12:46:03.210Z,100094.16
2022-11-23T12:48:48.449Z,100091.56
2022-11-23T12:51:40.657Z,100088.09
2022-11-23T12:54:14.052Z,100096.09
2022-11-23T12:57:18.841Z,100095.38
2022-11-23T12:59:53.532Z,100085.34
2022-11-23T13:02:36.968Z,100094.97
2022-11-23T13:05:22.612Z,100094.06
2022-11-23T13:08:04.503Z,100095.59
2022-11-23T13:10:48.350Z,100093.94
2022-11-23T13:13:40.585Z,100096.41
2022-11-23T13:16:10.331Z,100094.47
2022-11-23T13:19:04.209Z,100095.19
2022-11-23T13:21:36.810Z,100086.00
2022-11-23T13:24:04.026Z,100091.56
2022-11-23T13:26:32.176Z,100091.88
2022-11-23T13:29:00.474Z,100088.00
2022-11-23T13:31:36.040Z,100098.66
2022-11-23T13:34:07.503Z,100098.25
2022-11-23T13:37:10.520Z,100094.16
2022-11-23T13:39:45.844Z,100096.59
2022-11-23T13:42:15.858Z,100093.31
2022-11-23T13:44:42.793Z,100106.00
2022-11-23T13:47:12.341Z,100109.00
2022-11-23T13:49:43.600Z,100102.41
2022-11-23T13:52:22.567Z,100107.88
2022-11-23T13:55:10.061Z,100102.72
2022-11-23T13:57:42.423Z,100100.88
2022-11-23T14:00:47.254Z,100102.63
2022-11-23T14:03:49.290Z,100102.25
2022-11-23T14:06:43.508Z,100102.13
2022-11-23T14:09:19.173Z,100097.22
2022-11-23T14:11:56.989Z,100097.03
2022-11-23T14:14:29.634Z,100093.94
2022-11-23T14:17:27.442Z,100102.84
2022-11-23T14:19:59.729Z,100098.47
2022-11-23T14:22:34.611Z,100101.41
2022-11-23T14:25:13.539Z,100101.41
2022-11-23T14:28:15.109Z,100099.78
2022-11-23T14:31:04.924Z,100104.91
2022-11-23T14:33:55.989Z,100103.00
2022-11-23T14:37:04.161Z,100113.13
2022-11-23T14:39:48.942Z,100107.81
2022-11-23T14:42:19.310Z,100104.50
2022-11-23T14:44:46.453Z,100113.63
2022-11-23T14:47:13.548Z,100108.69
2022-11-23T14:49:51.184Z,100108.81
2022-11-23T14:52:33.765Z,100107.34
2022-11-23T14:55:03.181Z,100112.78
2022-11-23T14:57:37.830Z,100115.09
2022-11-23T15:00:10.207Z,100115.28
2022-11-23T15:02:40.928Z,100113.63
2022-11-23T15:05:15.162Z,100122.50
2022-11-23T15:08:02.902Z,100124.16
2022-11-23T15:10:51.699Z,100126.97
2022-11-23T15:13:21.044Z,100116.88
2022-11-23T15:15:52.289Z,100121.41
2022-11-23T15:18:29.672Z,100126.91
2022-11-23T15:20:59.795Z,100130.56
2022-11-23T15:23:33.309Z,100131.75
2022-11-23T15:26:04.146Z,100137.91
2022-11-23T15:28:33.231Z,100138.13
2022-11-23T15:31:01.902Z,100138.91
2022-11-23T15:33:28.811Z,100134.69
2022-11-23T15:35:55.834Z,100147.75
2022-11-23T15:38:24.155Z,100153.06
2022-11-23T15:40:51.559Z,100143.78
2022-11-23T15:43:19.662Z,100154.88
2022-11-23T15:45:46.556Z,100146.72
2022-11-23T15:48:16.493Z,100147.47
2022-11-23T15:50:53.795Z,100153.09
2022-11-23T15:53:38.220Z,100152.97
2022-11-23T15:56:06.448Z,100162.97
2022-11-23T15:58:35.277Z,100163.09
2022-11-23T16:01:13.343Z,100170.53
2022-11-23T16:03:52.649Z,100167.63
2022-11-23T16:06:23.222Z,100169.22
2022-11-23T16:08:49.924Z,100172.00
2022-11-23T16:11:35.455Z,100179.94
2022-11-23T16:14:18.557Z,100176.09
2022-11-23T16:16:47.735Z,100178.44
2022-11-23T16:19:31.159Z,100183.25
2022-11-23T16:22:02.953Z,100170.66
2022-11-23T16:24:35.263Z,100165.31
2022-11-23T16:27:12.077Z,100169.69
2022-11-23T16:29:42.004Z,100173.13
2022-11-23T16:32:29.346Z,100171.38
2022-11-23T16:34:58.669Z,100156.59
2022-11-23T16:37:26.599Z,100162.59
2022-11-23T16:39:53.399Z,100166.41
2022-11-23T16:42:20.288Z,100172.31
2022-11-23T16:44:47.202Z,100178.78
2022-11-23T16:47:25.237Z,100180.94
2022-11-23T16:49:55.295Z,100179.13
2022-11-23T16:52:23.074Z,100175.56
2022-11-23T16:54:50.733Z,100174.69
2022-11-23T16:57:27.479Z,100180.78
2022-11-23T16:59:54.309Z,100187.22
2022-11-23T17:02:21.690Z,100185.41
2022-11-23T17:04:48.678Z,100181.84
2022-11-23T17:07:16.951Z,100176.56
2022-11-23T17:09:44.744Z,100174.91
2022-11-23T17:12:17.183Z,100176.34
2022-11-23T17:14:47.187Z,100175.41
2022-11-23T17:17:23.029Z,100171.88
2022-11-23T17:19:50.282Z,100172.56
2022-11-23T17:22:18.020Z,100169.47
2022-11-23T17:24:44.951Z,100174.19
2022-11-23T17:27:16.899Z,100174.84
2022-11-23T17:29:44.851Z,100174.94
2022-11-23T17:32:13.155Z,100183.81
2022-11-23T17:34:41.645Z,100186.09
2022-11-23T17:37:18.162Z,100188.66
2022-11-23T17:39:45.173Z,100183.31
2022-11-23T17:42:12.534Z,100188.63
2022-11-23T17:44:39.542Z,100186.84
2022-11-23T17:47:07.670Z,100197.53
2022-11-23T17:49:35.758Z,100196.66
2022-11-23T17:52:02.665Z,100203.66
2022-11-23T17:54:29.559Z,100201.22
2022-11-23T17:56:57.963Z,100210.91
2022-11-23T17:59:24.852Z,100206.09
2022-11-23T18:01:51.695Z,100208.63
2022-11-23T18:04:18.490Z,100208.78
2022-11-23T18:06:49.656Z,100199.28
2022-11-23T18:09:17.366Z,100200.84
2022-11-23T18:11:44.181Z,100211.53
2022-11-23T18:14:10.877Z,100210.97
2022-11-23T18:16:37.890Z,100205.94
2022-11-23T18:19:04.821Z,100207.47
2022-11-23T18:21:31.984Z,100213.47
2022-11-23T18:24:04.120Z,100215.38
2022-11-23T18:26:31.949Z,100211.75
2022-11-23T18:28:59.046Z,100218.03
2022-11-23T18:31:26.279Z,100217.19
2022-11-23T18:33:53.365Z,100213.16
2022-11-23T18:36:20.947Z,100217.50
2022-11-23T18:38:48.319Z,100217.84
2022-11-23T18:41:16.967Z,100214.28
2022-11-23T18:43:44.532Z,100221.25
2022-11-23T18:46:12.665Z,100224.72
2022-11-23T18:48:39.611Z,100226.66
2022-11-23T18:51:11.875Z,100229.28
2022-11-23T18:53:39.513Z,100229.03
2022-11-23T18:56:07.690Z,100232.78
2022-11-23T18:58:42.471Z,100228.34
2022-11-23T19:01:21.011Z,100231.91
2022-11-23T19:03:50.207Z,100233.84
2022-11-23T19:06:18.322Z,100239.09
2022-11-23T19:08:50.920Z,100235.50
2022-11-23T19:11:23.511Z,100237.31
2022-11-23T19:13:52.383Z,100250.75
2022-11-23T19:16:21.597Z,100241.88
2022-11-23T19:18:53.717Z,100246.22
2022-11-23T19:21:21.715Z,100246.47
2022-11-23T19:23:50.209Z,100242.00
2022-11-23T19:26:18.263Z,100248.25
2022-11-23T19:28:46.159Z,100251.72
2022-11-23T19:31:24.404Z,100253.53
2022-11-23T19:33:52.725Z,100254.56
2022-11-23T19:36:21.709Z,100251.13
2022-11-23T19:38:49.386Z,100263.34
2022-11-23T19:41:16.778Z,100262.50
2022-11-23T19:43:43.555Z,100266.81
2022-11-23T19:46:14.978Z,100267.00
2022-11-23T19:48:42.281Z,100258.34
2022-11-23T19:51:13.625Z,100268.88
2022-11-23T19:53:41.562Z,100261.91
2022-11-23T19:56:14.291Z,100262.03
2022-11-23T19:58:48.413Z,100266.66
2022-11-23T20:01:19.867Z,100262.97
2022-11-23T20:03:48.870Z,100266.44
2022-11-23T20:06:17.962Z,100265.53
2022-11-23T20:08:45.481Z,100273.53
2022-11-23T20:11:15.094Z,100273.47
2022-11-23T20:13:42.440Z,100271.88
2022-11-23T20:16:12.591Z,100274.72
2022-11-23T20:18:39.814Z,100277.13
2022-11-23T20:21:14.294Z,100277.13
2022-11-23T20:23:42.036Z,100287.75
2022-11-23T20:26:11.068Z,100286.81
2022-11-23T20:28:37.922Z,100281.72
2022-11-23T20:31:16.944Z,100297.56
2022-11-23T20:33:46.564Z,100289.56
2022-11-23T20:36:29.218Z,100297.34
2022-11-23T20:39:05.242Z,100298.34
2022-11-23T20:41:34.520Z,100300.88
2022-11-23T20:44:03.422Z,100295.78
2022-11-23T20:46:54.104Z,100312.38
2022-11-23T20:49:18.124Z,100302.09
2022-11-23T20:51:46.006Z,100303.78
2022-11-23T20:54:13.001Z,100298.66
2022-11-23T20:56:39.861Z,100302.00
2022-11-23T20:59:06.839Z,100303.03
2022-11-23T21:01:33.647Z,100299.72
2022-11-23T21:04:00.563Z,100311.84
2022-11-23T21:06:27.767Z,100306.66
2022-11-23T21:08:54.873Z,100310.38
2022-11-23T21:11:41.264Z,100309.44
2022-11-23T21:14:18.545Z,100317.34
2022-11-23T21:16:46.351Z,100326.13
2022-11-23T21:19:14.398Z,100330.53
2022-11-23T21:21:42.536Z,100336.56
2022-11-23T21:24:09.837Z,100337.34
2022-11-23T21:26:36.618Z,100342.72
2022-11-23T21:29:11.549Z,100347.22
2022-11-23T21:31:40.138Z,100349.00
2022-11-23T21:34:10.696Z,100349.94
2022-11-23T21:36:39.457Z,100342.00
2022-11-23T21:39:09.249Z,100341.13
2022-11-23T21:41:36.888Z,100345.56
2022-11-23T21:44:04.709Z,100349.91
2022-11-23T21:46:31.623Z,100355.19
2022-11-23T21:49:00.073Z,100357.75
2022-11-23T21:51:30.132Z,100360.31
2022-11-23T21:53:59.161Z,100363.94
2022-11-23T21:56:26.828Z,100368.22
2022-11-23T21:58:55.451Z,100371.59
2022-11-23T22:01:24.585Z,100377.44
2022-11-23T22:03:52.465Z,100378.69
2022-11-23T22:06:20.890Z,100380.53
2022-11-23T22:08:56.053Z,100371.53
2022-11-23T22:11:25.359Z,100366.03
2022-11-23T22:14:00.395Z,100381.03
2022-11-23T22:16:31.216Z,100380.00
2022-11-23T22:18:58.268Z,100377.41
2022-11-23T22:21:27.011Z,100380.03
2022-11-23T22:23:54.146Z,100379.16
2022-11-23T22:26:21.457Z,100378.00
2022-11-23T22:28:50.920Z,100386.03
2022-11-23T22:31:20.086Z,100387.00
2022-11-23T22:33:47.287Z,100393.22
2022-11-23T22:36:16.093Z,100392.28
2022-11-23T22:38:43.780Z,100386.97
2022-11-23T22:41:15.824Z,100391.38
2022-11-23T22:43:43.222Z,100397.34
2022-11-23T22:46:15.069Z,100398.28
2022-11-23T22:48:43.999Z,100395.78
2022-11-23T22:51:12.576Z,100395.88
2022-11-23T22:53:44.455Z,100402.09
2022-11-23T22:56:14.405Z,100401.09
2022-11-23T22:58:41.441Z,100396.69
2022-11-23T23:01:11.625Z,100400.28
2022-11-23T23:03:38.634Z,100405.53
2022-11-23T23:06:05.605Z,100406.50
2022-11-23T23:08:32.475Z,100406.69
2022-11-23T23:11:08.627Z,100409.19
2022-11-23T23:13:35.390Z,100408.22
2022-11-23T23:16:03.719Z,100403.84
2022-11-23T23:18:32.049Z,100405.56
2022-11-23T23:21:10.690Z,100408.28
2022-11-23T23:23:42.314Z,100402.34
2022-11-23T23:26:09.235Z,100404.84
2022-11-23T23:28:35.921Z,100404.19
2022-11-23T23:31:05.309Z,100419.09
2022-11-23T23:33:33.521Z,100415.44
2022-11-23T23:36:08.960Z,100428.63
2022-11-23T23:38:37.426Z,100429.53
2022-11-23T23:41:05.316Z,100425.31
2022-11-23T23:43:32.179Z,100425.38
2022-11-23T23:46:03.798Z,100427.16
2022-11-23T23:48:32.425Z,100427.22
2022-11-23T23:50:59.764Z,100431.56
2022-11-23T23:53:26.473Z,100427.16
2022-11-23T23:55:57.543Z,100437.59
2022-11-23T23:58:24.618Z,100432.31
